Terminal Aerodrome Forecast
Issued by NWS Melbourne, FL

Home | Current Version | Previous Version | Text Only | Print | Product List | Glossary On
Versions: 1 2 3 4 5 6 7 8 9 10 11 12 13 14 15 16 17
000
FTUS42 KMLB 221744
TAFMLB
TAF
KMLB 221744Z 2218/2318 15009KT P6SM VCTS SCT035CB BKN070
      TEMPO 2219/2221 VRB15G30KT 3SM TSRA BKN030CB BKN060
     FM222300 20005KT P6SM BKN070 BKN120
     FM231400 19007KT P6SM SCT030 BKN150=

USA.gov is the U.S. government's official web portal to all federal, state and local government web resources and services.